Time;durP1;ratioP1;P1;durP2;ratioP2;P2;SDS_P1;SDS_P2;PMS_P1;PMS_P2;Temp;Humidity;BMP_temperature;BMP_pressure;BME280_temperature;BME280_humidity;BME280_pressure;Samples;Min_cycle;Max_cycle;Signal;HPM_P1;HPM_P2
2022/09/04 00:02:19;;;;;;;3.70;3.28;;;19.80;99.90;;;;;;5013382;28;20050;-75
2022/09/04 00:05:09;;;;;;;5.20;2.92;;;19.80;99.90;;;;;;5028823;28;20022;-75
2022/09/04 00:07:54;;;;;;;3.75;3.38;;;19.80;99.90;;;;;;5005567;28;20030;-75
2022/09/04 00:10:20;;;;;;;6.28;3.22;;;19.70;99.90;;;;;;5010104;28;20109;-75
2022/09/04 00:12:59;;;;;;;7.70;3.25;;;19.60;99.90;;;;;;5028416;28;20137;-75
2022/09/04 00:15:34;;;;;;;5.05;3.40;;;19.70;99.90;;;;;;5013454;28;20026;-75
2022/09/04 00:18:22;;;;;;;4.65;3.10;;;19.70;99.90;;;;;;4997678;28;20503;-76
2022/09/04 00:21:05;;;;;;;4.72;3.42;;;19.60;99.90;;;;;;5011396;28;20040;-75
2022/09/04 00:23:50;;;;;;;5.55;3.45;;;19.60;99.90;;;;;;5028003;28;20041;-75
2022/09/04 00:26:54;;;;;;;5.53;3.60;;;19.50;99.90;;;;;;5012230;28;20105;-75
2022/09/04 00:29:41;;;;;;;3.97;3.67;;;19.60;99.90;;;;;;5027745;28;20055;-75
2022/09/04 00:32:18;;;;;;;6.45;3.97;;;19.60;99.90;;;;;;5012789;28;20113;-75
2022/09/04 00:35:12;;;;;;;3.42;3.13;;;19.50;99.90;;;;;;5021336;28;20026;-75
2022/09/04 00:37:47;;;;;;;3.92;3.63;;;19.50;99.90;;;;;;5012917;28;20037;-75
2022/09/04 00:40:47;;;;;;;4.45;3.63;;;19.50;99.90;;;;;;5012781;28;20034;-74
2022/09/04 00:43:28;;;;;;;5.85;3.50;;;19.50;99.90;;;;;;5011723;28;20033;-75
2022/09/04 00:46:01;;;;;;;5.90;3.67;;;19.50;99.90;;;;;;5011697;28;20104;-75
2022/09/04 00:48:38;;;;;;;8.23;4.03;;;19.40;99.90;;;;;;5012233;28;20014;-75
2022/09/04 00:51:51;;;;;;;6.03;3.63;;;19.40;99.90;;;;;;5013049;28;20065;-74
2022/09/04 00:54:26;;;;;;;3.93;3.13;;;19.40;99.90;;;;;;5011347;28;20622;-74
2022/09/04 00:57:14;;;;;;;3.65;3.35;;;19.40;99.90;;;;;;5013223;28;20257;-75
2022/09/04 00:59:50;;;;;;;4.72;3.67;;;19.40;99.90;;;;;;5011075;28;20033;-74
2022/09/04 01:02:42;;;;;;;4.50;3.28;;;19.40;99.90;;;;;;5013408;28;20076;-75
2022/09/04 01:05:28;;;;;;;4.05;3.65;;;19.40;99.90;;;;;;5026439;28;20037;-76
2022/09/04 01:08:19;;;;;;;3.40;3.10;;;19.40;99.90;;;;;;5014921;28;20041;-75
2022/09/04 01:11:09;;;;;;;9.13;3.85;;;19.40;99.90;;;;;;5011325;28;20029;-75
2022/09/04 01:13:44;;;;;;;3.95;3.33;;;19.40;99.90;;;;;;5009444;28;20030;-76
2022/09/04 01:16:43;;;;;;;3.28;2.97;;;19.50;99.90;;;;;;5022465;28;20029;-74
2022/09/04 01:19:19;;;;;;;3.72;3.42;;;19.50;99.90;;;;;;5013737;28;20036;-75
2022/09/04 01:21:54;;;;;;;3.75;3.22;;;19.50;99.90;;;;;;5011770;28;20344;-74
2022/09/04 01:24:37;;;;;;;4.57;3.72;;;19.40;99.90;;;;;;5014730;28;20056;-75
2022/09/04 01:27:29;;;;;;;4.43;3.10;;;19.30;99.90;;;;;;5012459;28;20041;-73
2022/09/04 01:30:06;;;;;;;4.07;3.38;;;19.30;99.90;;;;;;5010977;28;20057;-75
2022/09/04 01:32:53;;;;;;;4.05;3.65;;;19.20;99.90;;;;;;5010734;28;20032;-74
2022/09/04 01:35:40;;;;;;;4.25;3.60;;;19.20;99.90;;;;;;5011681;28;20029;-75
2022/09/04 01:38:21;;;;;;;4.25;3.70;;;19.20;99.90;;;;;;5015054;28;20039;-75
2022/09/04 01:41:12;;;;;;;4.15;3.75;;;19.10;99.90;;;;;;5013780;28;20022;-75
2022/09/04 01:43:39;;;;;;;5.75;3.88;;;19.10;99.90;;;;;;5009915;28;20022;-76
2022/09/04 01:46:17;;;;;;;4.03;3.70;;;19.00;99.90;;;;;;5011931;28;20111;-74
2022/09/04 01:49:01;;;;;;;4.18;3.83;;;19.00;99.90;;;;;;5011721;28;20026;-74
2022/09/04 01:51:47;;;;;;;4.35;3.78;;;19.00;99.90;;;;;;5011607;28;20029;-75
2022/09/04 01:54:15;;;;;;;4.90;3.15;;;19.00;99.90;;;;;;5010304;28;20056;-76
2022/09/04 01:57:05;;;;;;;5.32;3.42;;;18.90;99.90;;;;;;5010917;28;20080;-74
2022/09/04 01:59:35;;;;;;;3.83;3.40;;;18.90;99.90;;;;;;5007577;28;20414;-76
2022/09/04 02:02:17;;;;;;;4.18;3.78;;;18.90;99.90;;;;;;5011109;28;20100;-75
2022/09/04 02:04:58;;;;;;;3.45;3.15;;;18.80;99.90;;;;;;5010184;28;20033;-75
2022/09/04 02:07:24;;;;;;;4.07;3.65;;;18.80;99.90;;;;;;5025319;28;20037;-73
2022/09/04 02:10:21;;;;;;;5.72;3.70;;;18.80;99.90;;;;;;5009139;28;20038;-74
2022/09/04 02:12:57;;;;;;;4.15;3.75;;;18.80;99.90;;;;;;4974766;28;20045;-76
2022/09/04 02:15:32;;;;;;;5.03;4.07;;;18.70;99.90;;;;;;5009048;28;20436;-75
2022/09/04 02:18:11;;;;;;;5.70;3.75;;;18.70;99.90;;;;;;5009411;28;20124;-75
2022/09/04 02:20:45;;;;;;;4.13;3.83;;;18.70;99.90;;;;;;5008130;28;20108;-75
2022/09/04 02:23:20;;;;;;;4.30;3.90;;;18.70;99.90;;;;;;5010820;28;20038;-77
2022/09/04 02:25:57;;;;;;;5.43;4.47;;;18.60;99.90;;;;;;5000928;28;20022;-73
2022/09/04 02:28:46;;;;;;;5.00;4.35;;;18.60;99.90;;;;;;5010654;28;20025;-77
2022/09/04 02:31:18;;;;;;;4.63;4.22;;;18.60;99.90;;;;;;5010776;28;20030;-75
2022/09/04 02:33:50;;;;;;;6.75;4.20;;;18.50;99.90;;;;;;5011260;28;20022;-75
2022/09/04 02:36:25;;;;;;;7.03;5.10;;;18.50;99.90;;;;;;5025188;28;20034;-74
2022/09/04 02:39:00;;;;;;;6.07;4.93;;;18.50;99.90;;;;;;5011194;28;20602;-74
2022/09/04 02:41:36;;;;;;;4.65;4.35;;;18.40;99.90;;;;;;5010696;28;20080;-76
2022/09/04 02:44:31;;;;;;;4.38;3.97;;;18.40;99.90;;;;;;5009504;28;20459;-76
2022/09/04 02:47:41;;;;;;;6.70;4.57;;;18.30;99.90;;;;;;5010656;28;20042;-75
2022/09/04 02:50:38;;;;;;;8.32;4.88;;;18.20;99.90;;;;;;5011059;28;20025;-74
2022/09/04 02:53:34;;;;;;;5.28;4.78;;;18.20;99.90;;;;;;5025544;28;20068;-75
2022/09/04 02:56:10;;;;;;;5.63;5.05;;;18.20;99.90;;;;;;5010612;28;20080;-73
2022/09/04 02:59:33;;;;;;;5.53;5.00;;;18.20;99.90;;;;;;5010504;28;20022;-77
2022/09/04 03:02:04;;;;;;;5.53;5.03;;;18.10;99.90;;;;;;4984190;28;20512;-77
2022/09/04 03:04:53;;;;;;;8.00;5.88;;;18.10;99.90;;;;;;4986633;28;20042;-74
2022/09/04 03:07:29;;;;;;;6.53;5.45;;;18.00;99.90;;;;;;4999102;28;20036;-75
2022/09/04 03:10:01;;;;;;;5.88;5.40;;;18.00;99.90;;;;;;4998897;28;20143;-74
2022/09/04 03:12:38;;;;;;;6.07;5.57;;;18.00;99.90;;;;;;5008726;28;20018;-74
2022/09/04 03:15:16;;;;;;;5.70;5.20;;;18.00;99.90;;;;;;5008180;28;20522;-74
2022/09/04 03:18:09;;;;;;;7.00;5.68;;;18.00;99.90;;;;;;5008919;28;20285;-75
2022/09/04 03:21:11;;;;;;;6.43;5.78;;;18.00;99.90;;;;;;5009285;28;20037;-72
2022/09/04 03:23:51;;;;;;;5.50;5.05;;;18.00;99.90;;;;;;5007426;28;20026;-72
2022/09/04 03:26:33;;;;;;;6.53;5.88;;;18.00;99.90;;;;;;5025755;28;20466;-75
2022/09/04 03:29:24;;;;;;;5.90;5.20;;;17.90;99.90;;;;;;5008784;28;20025;-75
2022/09/04 03:31:59;;;;;;;6.57;5.82;;;17.90;99.90;;;;;;5009601;28;20273;-73
2022/09/04 03:34:29;;;;;;;6.30;5.65;;;17.80;99.90;;;;;;5009773;28;20018;-74
2022/09/04 03:37:13;;;;;;;7.18;5.35;;;17.80;99.90;;;;;;5007310;28;20323;-74
2022/09/04 03:39:42;;;;;;;7.00;5.80;;;17.70;99.90;;;;;;5008641;28;20032;-75
2022/09/04 03:42:59;;;;;;;15.20;6.40;;;17.70;99.90;;;;;;5010024;28;20105;-74
2022/09/04 03:45:24;;;;;;;6.68;5.97;;;17.60;99.90;;;;;;4997685;28;20044;-75
2022/09/04 03:48:02;;;;;;;7.38;4.95;;;17.60;99.90;;;;;;5010083;28;20109;-74
2022/09/04 03:50:57;;;;;;;6.90;6.25;;;17.60;99.90;;;;;;5016923;28;20022;-74
2022/09/04 03:54:12;;;;;;;7.88;6.50;;;17.60;99.90;;;;;;5007132;28;20058;-76
2022/09/04 03:56:38;;;;;;;8.10;6.07;;;17.60;99.90;;;;;;4992044;28;20511;-70
2022/09/04 03:59:15;;;;;;;6.68;6.03;;;17.60;99.90;;;;;;5009804;28;20108;-74
2022/09/04 04:02:05;;;;;;;7.90;6.53;;;17.50;99.90;;;;;;5008461;28;20030;-75
2022/09/04 04:04:43;;;;;;;7.53;6.43;;;17.50;99.90;;;;;;5012840;28;20026;-74
2022/09/04 04:07:31;;;;;;;7.53;6.40;;;17.40;99.90;;;;;;5008588;28;20049;-74
2022/09/04 04:10:00;;;;;;;9.52;6.35;;;17.30;99.90;;;;;;5009396;28;20025;-74
2022/09/04 04:12:43;;;;;;;7.05;6.10;;;17.30;99.90;;;;;;5009286;28;20033;-76
2022/09/04 04:15:36;;;;;;;7.50;6.30;;;17.20;99.90;;;;;;5022943;28;20026;-75
2022/09/04 04:18:24;;;;;;;7.93;6.47;;;17.20;99.90;;;;;;5009419;28;20432;-75
2022/09/04 04:21:04;;;;;;;9.00;6.70;;;17.20;99.90;;;;;;5006536;28;20471;-76
2022/09/04 04:24:00;;;;;;;10.40;6.68;;;17.10;99.90;;;;;;5009566;28;20225;-74
2022/09/04 04:26:48;;;;;;;7.97;6.28;;;17.10;99.90;;;;;;5008862;28;20026;-74
2022/09/04 04:29:41;;;;;;;10.52;5.93;;;17.00;99.90;;;;;;5008049;28;20037;-74
2022/09/04 04:32:16;;;;;;;;;;;17.00;99.90;;;;;;5009928;28;20022;-75
2022/09/04 04:34:54;;;;;;;8.45;6.47;;;17.00;99.90;;;;;;5016694;28;19972;-74
2022/09/04 04:37:32;;;;;;;8.15;6.68;;;17.00;99.90;;;;;;5012359;28;20029;-75
2022/09/04 04:40:13;;;;;;;13.07;6.38;;;17.00;99.90;;;;;;5010453;28;20056;-75
2022/09/04 04:42:45;;;;;;;10.38;7.00;;;17.00;99.90;;;;;;5010978;28;20029;-76
2022/09/04 04:48:19;;;;;;;10.00;6.50;;;17.10;99.90;;;;;;5012860;28;20113;-76
2022/09/04 04:51:00;;;;;;;8.13;6.65;;;17.10;99.90;;;;;;5011948;28;20029;-74
2022/09/04 04:53:41;;;;;;;9.10;6.55;;;17.10;99.90;;;;;;5011990;28;20139;-75
2022/09/04 04:56:30;;;;;;;8.20;6.82;;;17.10;99.90;;;;;;5013309;28;20343;-75
2022/09/04 04:59:28;;;;;;;8.75;7.68;;;17.10;99.90;;;;;;5010960;28;20030;-74
2022/09/04 05:02:13;;;;;;;7.50;6.68;;;17.00;99.90;;;;;;5008878;28;20041;-74
2022/09/04 05:05:03;;;;;;;8.70;6.60;;;17.00;99.90;;;;;;5010235;28;20911;-74
2022/09/04 05:07:36;;;;;;;6.85;6.18;;;17.00;99.90;;;;;;5011598;28;20332;-74
2022/09/04 05:10:24;;;;;;;9.40;6.13;;;17.10;99.90;;;;;;5013019;28;20029;-75
2022/09/04 05:13:10;;;;;;;6.72;6.13;;;17.10;99.90;;;;;;5010865;28;20260;-76
2022/09/04 05:15:48;;;;;;;6.80;6.18;;;17.10;99.90;;;;;;5012348;28;20025;-77
2022/09/04 05:18:56;;;;;;;9.60;6.32;;;17.10;99.90;;;;;;5011776;28;20029;-76
2022/09/04 05:21:55;;;;;;;8.40;6.63;;;17.10;99.90;;;;;;4969520;28;20041;-76
2022/09/04 05:24:41;;;;;;;8.23;6.25;;;17.20;99.90;;;;;;5012214;28;20042;-74
2022/09/04 05:27:16;;;;;;;11.32;6.65;;;17.20;99.90;;;;;;5010470;28;20427;-75
2022/09/04 05:30:09;;;;;;;15.90;6.72;;;17.30;99.90;;;;;;5012510;28;20030;-76
2022/09/04 05:32:43;;;;;;;8.00;6.55;;;17.30;99.90;;;;;;5010261;28;20037;-74
2022/09/04 05:35:44;;;;;;;10.27;6.50;;;17.40;99.90;;;;;;5011161;28;20491;-76
2022/09/04 05:38:27;;;;;;;7.65;6.50;;;17.40;99.90;;;;;;5010657;28;20022;-74
2022/09/04 05:41:07;;;;;;;8.30;6.38;;;17.50;99.90;;;;;;5010827;28;20037;-76
2022/09/04 05:43:38;;;;;;;9.10;6.13;;;17.50;99.90;;;;;;5011026;28;20022;-74
2022/09/04 05:46:25;;;;;;;369.75;163.88;;;17.60;99.90;;;;;;5010038;28;20037;-76
2022/09/04 05:49:19;;;;;;;20.60;11.27;;;17.60;99.90;;;;;;4993112;28;20946;-77
2022/09/04 05:51:50;;;;;;;11.23;6.88;;;17.60;99.90;;;;;;5010448;28;20463;-75
2022/09/04 05:54:42;;;;;;;6.88;6.18;;;17.60;99.90;;;;;;5011465;28;20112;-73
2022/09/04 05:57:31;;;;;;;11.25;7.20;;;17.70;99.90;;;;;;4998286;28;20038;-74
2022/09/04 06:00:29;;;;;;;6.57;5.80;;;17.70;99.90;;;;;;5012034;28;20032;-75
2022/09/04 06:03:32;;;;;;;9.77;7.00;;;17.80;99.90;;;;;;5004944;28;20050;-74
2022/09/04 06:06:03;;;;;;;;;;;17.80;99.90;;;;;;5004066;28;20030;-78
2022/09/04 06:08:50;;;;;;;62.25;25.90;;;17.90;99.90;;;;;;5014337;28;19913;-75
2022/09/04 06:11:40;;;;;;;168.23;72.95;;;18.00;99.90;;;;;;5014792;28;20060;-75
2022/09/04 06:14:27;;;;;;;11.82;7.65;;;18.20;99.90;;;;;;5012905;28;20032;-76
2022/09/04 06:16:53;;;;;;;8.15;6.28;;;18.30;99.90;;;;;;5012065;28;20521;-76
2022/09/04 06:19:30;;;;;;;6.82;6.18;;;18.30;99.90;;;;;;5013343;28;20041;-76
2022/09/04 06:22:44;;;;;;;6.40;5.80;;;18.40;99.90;;;;;;5010612;28;20093;-77
2022/09/04 06:25:20;;;;;;;10.45;6.40;;;18.50;99.90;;;;;;4991209;28;20582;-76
2022/09/04 06:28:07;;;;;;;11.48;6.68;;;18.60;99.90;;;;;;5009634;28;20041;-75
2022/09/04 06:30:59;;;;;;;7.72;6.68;;;18.70;99.90;;;;;;5009725;28;20029;-73
2022/09/04 06:33:46;;;;;;;8.77;6.78;;;18.80;99.90;;;;;;5003533;28;20040;-72
2022/09/04 06:36:51;;;;;;;9.55;6.28;;;19.00;99.90;;;;;;5011592;28;20028;-74
2022/09/04 06:39:59;;;;;;;8.40;6.65;;;19.10;99.90;;;;;;5009941;28;20068;-76
2022/09/04 06:42:51;;;;;;;9.70;7.07;;;19.20;99.90;;;;;;5010388;28;20478;-76
2022/09/04 06:45:47;;;;;;;9.80;6.78;;;19.40;99.90;;;;;;5010554;28;20091;-74
2022/09/04 06:48:38;;;;;;;12.20;6.70;;;19.60;99.90;;;;;;5010818;28;20059;-74
2022/09/04 06:51:09;;;;;;;11.77;7.85;;;19.70;99.90;;;;;;5010041;28;20024;-77
2022/09/04 06:53:49;;;;;;;8.05;7.25;;;19.70;99.90;;;;;;5007350;28;20018;-76
2022/09/04 06:56:47;;;;;;;13.73;7.47;;;19.80;99.90;;;;;;5010293;28;20029;-75
2022/09/04 06:59:51;;;;;;;12.40;7.68;;;20.00;99.90;;;;;;4989044;28;20377;-71
2022/09/04 07:02:16;;;;;;;;;;;20.00;99.90;;;;;;4986484;28;20038;-74
2022/09/04 07:04:46;;;;;;;13.43;6.82;;;20.10;99.90;;;;;;5005302;28;19909;-76
2022/09/04 07:07:23;;;;;;;12.25;7.57;;;20.30;99.90;;;;;;4999768;28;20025;-75
2022/09/04 07:09:56;;;;;;;11.27;7.38;;;20.40;99.90;;;;;;5009291;28;20581;-76
2022/09/04 07:12:41;;;;;;;11.02;7.70;;;20.40;99.90;;;;;;5009054;28;20097;-76
2022/09/04 07:15:28;;;;;;;12.20;7.68;;;20.40;99.90;;;;;;5010666;28;20029;-74
2022/09/04 07:18:16;;;;;;;9.75;7.00;;;20.60;99.90;;;;;;5012589;28;20030;-74
2022/09/04 07:21:34;;;;;;;8.90;7.50;;;20.80;99.90;;;;;;5008753;28;20466;-75
2022/09/04 07:24:13;;;;;;;10.60;7.25;;;20.80;99.90;;;;;;5010895;28;20034;-77
2022/09/04 07:26:52;;;;;;;15.38;7.95;;;21.00;99.90;;;;;;5008899;28;20344;-76
2022/09/04 07:29:32;;;;;;;13.43;7.82;;;21.10;99.90;;;;;;5009121;28;20030;-75
2022/09/04 07:31:58;;;;;;;12.15;7.35;;;21.10;99.90;;;;;;5009585;28;20034;-76
2022/09/04 07:34:56;;;;;;;8.65;7.18;;;21.30;99.90;;;;;;5010569;28;20108;-76
2022/09/04 07:38:05;;;;;;;10.07;7.10;;;21.30;99.90;;;;;;5026063;28;20026;-76
2022/09/04 07:40:52;;;;;;;10.13;6.85;;;21.50;99.90;;;;;;5001211;28;20212;-77
2022/09/04 07:43:30;;;;;;;12.55;6.72;;;21.50;99.90;;;;;;5008460;28;20022;-77
2022/09/04 07:46:04;;;;;;;10.80;7.38;;;21.70;99.90;;;;;;5027457;28;20117;-77
2022/09/04 07:48:45;;;;;;;12.48;7.30;;;21.80;99.90;;;;;;5009916;28;20026;-77
2022/09/04 07:51:18;;;;;;;12.38;7.50;;;21.70;99.90;;;;;;5010621;28;20115;-75
2022/09/04 07:54:20;;;;;;;13.15;7.88;;;21.90;99.90;;;;;;5008750;28;20037;-76
2022/09/04 07:57:22;;;;;;;12.43;7.60;;;22.10;99.90;;;;;;5021033;28;20136;-77
2022/09/04 07:59:54;;;;;;;9.37;6.97;;;22.30;99.90;;;;;;5010339;28;20041;-75
2022/09/04 08:02:57;;;;;;;10.98;7.55;;;22.40;99.90;;;;;;5010019;28;20021;-76
2022/09/04 08:05:26;;;;;;;9.25;7.60;;;22.30;99.90;;;;;;5010423;28;20026;-75
2022/09/04 08:08:22;;;;;;;11.45;7.47;;;22.40;99.90;;;;;;5012602;28;20082;-77
2022/09/04 08:10:53;;;;;;;8.73;6.88;;;22.70;99.90;;;;;;5014555;28;20049;-75
2022/09/04 08:13:29;;;;;;;9.07;7.28;;;22.70;99.90;;;;;;5006281;28;20026;-76
2022/09/04 08:16:05;;;;;;;12.30;8.10;;;22.80;99.90;;;;;;5016387;28;20029;-77
2022/09/04 08:19:08;;;;;;;14.25;8.32;;;23.10;99.90;;;;;;5016964;28;20754;-75
2022/09/04 08:21:42;;;;;;;9.60;6.43;;;23.40;99.90;;;;;;5016280;28;20034;-75
2022/09/04 08:24:26;;;;;;;9.63;6.75;;;23.60;99.90;;;;;;5013132;28;20351;-76
2022/09/04 08:27:08;;;;;;;11.85;7.57;;;23.90;99.90;;;;;;5013063;28;20028;-77
2022/09/04 08:30:03;;;;;;;10.15;6.53;;;24.10;99.90;;;;;;5013933;28;20075;-76
2022/09/04 08:32:40;;;;;;;7.78;6.55;;;24.50;99.90;;;;;;5013552;28;20442;-76
2022/09/04 08:35:15;;;;;;;12.88;7.63;;;24.60;99.90;;;;;;5014175;28;20026;-76
2022/09/04 08:37:59;;;;;;;14.43;6.97;;;24.90;99.90;;;;;;5011795;28;20022;-77
2022/09/04 08:40:53;;;;;;;16.92;7.80;;;25.00;99.90;;;;;;5017765;28;20073;-74
2022/09/04 08:43:47;;;;;;;9.13;7.30;;;25.20;99.90;;;;;;5019209;28;20042;-74
2022/09/04 08:46:47;;;;;;;11.15;8.00;;;25.60;99.90;;;;;;5002877;28;20052;-77
2022/09/04 08:49:47;;;;;;;10.10;7.20;;;25.90;99.90;;;;;;4992128;28;20072;-79
2022/09/04 08:52:26;;;;;;;7.47;6.35;;;25.80;99.90;;;;;;5012552;28;20706;-77
2022/09/04 08:55:04;;;;;;;18.52;6.68;;;26.10;99.90;;;;;;5011296;28;20102;-74
2022/09/04 08:57:45;;;;;;;8.90;6.28;;;26.50;99.90;;;;;;5012226;28;20068;-74
2022/09/04 09:00:41;;;;;;;8.77;5.43;;;26.90;99.90;;;;;;5011784;28;20041;-75
2022/09/04 09:03:28;;;;;;;6.20;5.57;;;27.30;99.70;;;;;;5011706;28;20022;-76
2022/09/04 09:06:06;;;;;;;7.22;5.93;;;27.60;98.90;;;;;;5014396;28;20537;-76
2022/09/04 09:08:50;;;;;;;8.25;6.88;;;27.80;97.80;;;;;;5013476;28;20048;-79
2022/09/04 09:11:34;;;;;;;5.32;4.72;;;27.90;96.70;;;;;;5003412;28;20503;-73
2022/09/04 09:14:21;;;;;;;5.53;4.75;;;28.30;96.70;;;;;;5010824;28;20037;-75
2022/09/04 09:17:12;;;;;;;8.70;6.53;;;29.00;94.40;;;;;;5012743;28;20041;-76
2022/09/04 09:20:11;;;;;;;7.90;6.28;;;29.20;93.10;;;;;;5011465;28;20030;-77
2022/09/04 09:23:11;;;;;;;6.00;5.35;;;29.50;92.00;;;;;;5011767;28;20030;-76
2022/09/04 09:26:05;;;;;;;7.18;4.88;;;29.20;91.10;;;;;;5011568;28;20034;-74
2022/09/04 09:28:55;;;;;;;8.18;5.95;;;29.20;91.20;;;;;;5012606;28;20046;-76
2022/09/04 09:32:00;;;;;;;11.57;5.70;;;29.40;90.80;;;;;;5009847;28;20030;-74
2022/09/04 09:35:00;;;;;;;7.68;5.53;;;29.90;90.00;;;;;;5011825;28;20487;-78
2022/09/04 09:37:28;;;;;;;6.50;4.93;;;30.40;87.30;;;;;;5011713;28;20437;-76
2022/09/04 09:40:03;;;;;;;9.45;5.80;;;30.80;84.70;;;;;;5017281;28;20135;-76
2022/09/04 09:43:00;;;;;;;4.38;3.97;;;31.10;82.50;;;;;;5037767;28;20021;-79
2022/09/04 09:45:47;;;;;;;7.30;5.28;;;31.70;81.00;;;;;;5031802;28;20032;-74
2022/09/04 09:48:34;;;;;;;5.55;5.03;;;31.70;77.70;;;;;;5031712;28;20093;-76
2022/09/04 09:51:00;;;;;;;7.82;5.38;;;32.30;76.40;;;;;;5031647;28;20033;-76
2022/09/04 09:54:03;;;;;;;8.10;4.53;;;32.10;74.00;;;;;;5032265;28;20432;-75
2022/09/04 09:56:54;;;;;;;10.32;4.25;;;32.30;72.40;;;;;;5031119;28;20047;-75
2022/09/04 10:00:01;;;;;;;4.38;3.97;;;32.30;71.00;;;;;;5036399;28;20044;-73
2022/09/04 10:02:47;;;;;;;4.70;3.67;;;31.90;69.70;;;;;;5025365;28;20142;-75
2022/09/04 10:05:18;;;;;;;8.13;5.13;;;32.30;69.00;;;;;;5031425;28;20447;-75
2022/09/04 10:08:04;;;;;;;6.28;4.80;;;32.30;68.60;;;;;;5030800;28;20057;-77
2022/09/04 10:10:44;;;;;;;6.40;4.53;;;32.10;67.20;;;;;;5031064;28;20087;-75
2022/09/04 10:13:46;;;;;;;4.50;3.50;;;32.40;67.40;;;;;;5031866;28;20013;-74
2022/09/04 10:16:11;;;;;;;6.78;3.60;;;32.20;66.20;;;;;;5030064;28;20525;-74
2022/09/04 10:19:11;;;;;;;5.13;3.90;;;32.10;65.70;;;;;;5029712;28;20025;-75
2022/09/04 10:22:16;;;;;;;4.50;4.10;;;32.10;67.00;;;;;;5030407;28;20642;-74
2022/09/04 10:25:04;;;;;;;4.78;3.78;;;31.90;67.30;;;;;;5029594;28;20072;-75
2022/09/04 10:28:01;;;;;;;3.80;3.47;;;31.90;67.60;;;;;;5029722;28;20168;-74
2022/09/04 10:30:53;;;;;;;3.88;3.47;;;31.80;66.00;;;;;;5029712;28;20029;-74
2022/09/04 10:33:36;;;;;;;6.00;3.40;;;31.80;66.50;;;;;;5009926;28;20128;-77
2022/09/04 10:36:24;;;;;;;6.85;3.80;;;32.20;65.50;;;;;;5029195;28;20108;-73
2022/09/04 10:41:55;;;;;;;4.57;3.63;;;32.20;64.70;;;;;;5030032;28;20095;-74
2022/09/04 10:44:40;;;;;;;6.53;3.55;;;32.40;63.50;;;;;;5030693;28;20044;-72
2022/09/04 10:47:23;;;;;;;6.53;3.60;;;32.30;63.70;;;;;;5030464;28;20032;-76
2022/09/04 10:50:20;;;;;;;7.25;4.07;;;32.50;62.80;;;;;;5045544;28;20040;-75
2022/09/04 10:52:52;;;;;;;6.30;3.53;;;32.60;63.80;;;;;;5032925;28;20053;-74
2022/09/04 10:55:56;;;;;;;4.07;3.65;;;33.00;62.50;;;;;;5031691;28;20036;-74
2022/09/04 10:59:01;;;;;;;3.78;3.42;;;33.50;60.40;;;;;;5005120;28;20052;-74
2022/09/04 11:01:33;;;;;;;4.28;3.30;;;33.30;59.50;;;;;;4977265;28;20649;-76
2022/09/04 11:04:12;;;;;;;3.78;3.47;;;33.80;58.50;;;;;;5007311;28;20625;-77
2022/09/04 11:07:00;;;;;;;4.43;3.78;;;34.20;58.00;;;;;;5004356;28;20039;-74
2022/09/04 11:09:40;;;;;;;4.07;3.30;;;34.50;57.10;;;;;;5003685;28;20034;-74
2022/09/04 11:12:47;;;;;;;3.80;3.60;;;34.20;56.90;;;;;;5010413;28;20056;-75
2022/09/04 11:15:46;;;;;;;3.80;3.25;;;33.70;57.50;;;;;;5006999;28;20141;-76
2022/09/04 11:18:39;;;;;;;3.20;2.85;;;33.60;57.90;;;;;;5006806;28;20022;-74
2022/09/04 11:21:31;;;;;;;3.47;3.25;;;33.80;57.50;;;;;;5007536;28;20162;-73
2022/09/04 11:24:00;;;;;;;4.55;3.38;;;33.20;57.40;;;;;;4994572;28;20042;-75
2022/09/04 11:26:53;;;;;;;7.20;3.72;;;33.40;58.30;;;;;;5004940;28;20022;-74
2022/09/04 11:29:46;;;;;;;5.22;3.10;;;33.50;57.40;;;;;;5009758;28;20557;-74
2022/09/04 11:32:12;;;;;;;;;;;33.50;56.90;;;;;;4979364;28;20088;-73
2022/09/04 11:34:55;;;;;;;3.67;3.45;;;33.30;58.00;;;;;;5011788;28;19928;-74
2022/09/04 11:38:06;;;;;;;3.80;3.42;;;32.70;58.90;;;;;;5026763;28;20036;-75
2022/09/04 11:40:41;;;;;;;4.55;3.45;;;33.00;59.20;;;;;;5028814;28;20033;-73
2022/09/04 11:43:29;;;;;;;3.88;3.22;;;33.40;58.00;;;;;;5028134;28;20053;-75
2022/09/04 11:46:03;;;;;;;3.47;3.17;;;33.50;57.70;;;;;;5030971;28;20025;-73
2022/09/04 11:48:48;;;;;;;3.25;3.00;;;32.90;58.10;;;;;;5032412;28;20053;-74
2022/09/04 11:51:52;;;;;;;5.20;3.33;;;32.40;59.10;;;;;;5032589;28;20029;-75
2022/09/04 11:54:27;;;;;;;3.13;2.92;;;31.90;59.40;;;;;;5033390;28;20026;-75
2022/09/04 11:57:21;;;;;;;4.72;2.78;;;31.80;60.00;;;;;;5032140;28;20025;-74
2022/09/04 12:00:06;;;;;;;2.88;2.60;;;32.30;59.50;;;;;;5033668;28;20045;-74
2022/09/04 12:03:00;;;;;;;4.13;2.58;;;33.00;58.00;;;;;;5035328;28;20427;-75
2022/09/04 12:06:06;;;;;;;3.97;2.72;;;33.30;56.90;;;;;;5031944;28;20049;-71
2022/09/04 12:09:18;;;;;;;3.10;2.90;;;33.40;56.70;;;;;;5033230;28;20091;-75
2022/09/04 12:11:58;;;;;;;4.03;3.20;;;33.70;55.70;;;;;;5033780;28;20033;-76
2022/09/04 12:14:39;;;;;;;3.08;2.88;;;34.10;54.90;;;;;;5033291;28;20033;-73
2022/09/04 12:17:46;;;;;;;3.40;3.20;;;33.90;54.80;;;;;;5033275;28;20025;-76
2022/09/04 12:20:46;;;;;;;3.38;2.97;;;33.10;55.00;;;;;;5031912;28;20033;-74
2022/09/04 12:23:24;;;;;;;2.75;2.65;;;32.10;56.90;;;;;;5048339;28;20060;-75
2022/09/04 12:26:20;;;;;;;4.45;2.70;;;32.60;57.40;;;;;;5026965;28;20021;-77
2022/09/04 12:29:08;;;;;;;5.80;2.55;;;33.50;56.30;;;;;;5027491;28;20060;-74
2022/09/04 12:32:07;;;;;;;3.50;3.20;;;34.10;54.40;;;;;;5031532;28;20033;-75
2022/09/04 12:34:34;;;;;;;3.50;2.80;;;34.20;53.40;;;;;;5032287;28;20033;-76
2022/09/04 12:37:21;;;;;;;4.53;3.00;;;33.70;53.90;;;;;;5032665;28;20103;-75
2022/09/04 12:40:01;;;;;;;5.55;3.58;;;32.80;55.20;;;;;;5032393;28;20043;-75
2022/09/04 12:42:44;;;;;;;6.00;2.90;;;33.00;55.50;;;;;;5032003;28;20032;-74
2022/09/04 12:45:35;;;;;;;4.50;3.00;;;33.20;55.10;;;;;;5031210;28;20028;-73
2022/09/04 12:48:42;;;;;;;5.15;3.00;;;33.00;55.00;;;;;;5031639;28;20026;-74
2022/09/04 12:51:13;;;;;;;3.00;2.63;;;32.50;56.10;;;;;;4981100;28;20046;-74
2022/09/04 12:53:48;;;;;;;2.88;2.60;;;31.90;57.60;;;;;;5032952;28;20045;-73
2022/09/04 12:56:44;;;;;;;4.65;2.63;;;31.80;57.90;;;;;;5030626;28;20557;-75
2022/09/04 12:59:24;;;;;;;2.88;2.55;;;31.30;58.60;;;;;;5014219;28;20045;-73
2022/09/04 13:02:11;;;;;;;10.95;2.58;;;30.90;59.50;;;;;;5031859;28;20018;-73
2022/09/04 13:04:54;;;;;;;2.88;2.67;;;30.90;59.60;;;;;;5030838;28;20029;-74
2022/09/04 13:07:42;;;;;;;3.35;2.35;;;31.00;59.50;;;;;;5032128;28;20455;-73
2022/09/04 13:10:32;;;;;;;2.95;2.67;;;31.00;59.60;;;;;;5031546;28;20443;-75
2022/09/04 13:13:15;;;;;;;2.70;2.50;;;31.20;59.50;;;;;;5029666;28;20362;-77
2022/09/04 13:15:50;;;;;;;3.35;2.20;;;31.70;59.40;;;;;;5031549;28;20026;-74
2022/09/04 13:18:20;;;;;;;4.32;2.30;;;31.80;58.30;;;;;;5031369;28;20042;-75
2022/09/04 13:21:07;;;;;;;10.07;2.78;;;32.00;57.40;;;;;;5029477;28;20609;-73
2022/09/04 13:24:00;;;;;;;3.20;2.35;;;31.70;57.90;;;;;;5031529;28;20029;-74
2022/09/04 13:26:53;;;;;;;2.47;2.27;;;31.70;58.00;;;;;;5031798;28;20467;-74
2022/09/04 13:29:39;;;;;;;;;;;31.70;58.30;;;;;;5006585;28;21457;-74
2022/09/04 13:32:42;;;;;;;4.05;2.22;;;31.90;57.00;;;;;;5031044;28;19908;-75
2022/09/04 13:35:30;;;;;;;2.05;1.80;;;32.00;56.70;;;;;;5024384;28;20329;-75
2022/09/04 13:38:23;;;;;;;2.30;2.20;;;32.70;55.90;;;;;;5031325;28;20033;-74
2022/09/04 13:41:10;;;;;;;4.38;2.03;;;32.90;54.40;;;;;;5031765;28;20029;-73
2022/09/04 13:43:54;;;;;;;4.03;2.05;;;33.10;54.30;;;;;;5022755;28;20032;-75
2022/09/04 13:46:28;;;;;;;4.00;2.15;;;33.20;53.90;;;;;;5029737;28;20034;-74
2022/09/04 13:49:21;;;;;;;2.60;1.90;;;33.10;53.40;;;;;;5031036;28;20029;-73
2022/09/04 13:51:58;;;;;;;2.78;1.98;;;32.70;53.40;;;;;;5046880;28;20037;-75
2022/09/04 13:54:38;;;;;;;2.28;2.08;;;32.90;53.20;;;;;;5029887;28;20040;-74
2022/09/04 13:57:15;;;;;;;3.03;2.20;;;32.90;52.80;;;;;;5031119;28;20037;-75
2022/09/04 13:59:45;;;;;;;1.75;1.65;;;32.80;53.50;;;;;;5029497;28;20756;-76
2022/09/04 14:02:13;;;;;;;2.35;2.25;;;32.70;54.00;;;;;;5030298;28;20120;-76
2022/09/04 14:04:52;;;;;;;3.17;1.98;;;33.10;54.30;;;;;;5030353;28;20061;-75
2022/09/04 14:07:30;;;;;;;3.67;2.08;;;33.50;53.10;;;;;;5029299;28;20018;-75
2022/09/04 14:10:03;;;;;;;1.95;1.83;;;33.40;52.50;;;;;;5031476;28;20040;-75
2022/09/04 14:12:48;;;;;;;2.28;2.17;;;33.30;52.70;;;;;;5031338;28;20045;-75
2022/09/04 14:15:19;;;;;;;3.47;2.13;;;33.40;53.00;;;;;;5041886;28;20027;-75
2022/09/04 14:18:13;;;;;;;2.60;2.40;;;33.70;52.30;;;;;;5030954;28;20017;-76
2022/09/04 14:20:57;;;;;;;2.75;2.20;;;33.60;52.20;;;;;;5029217;28;20025;-75
2022/09/04 14:23:47;;;;;;;2.85;1.80;;;33.00;52.50;;;;;;5030065;28;20037;-73
2022/09/04 14:26:48;;;;;;;2.25;1.60;;;33.00;52.80;;;;;;5030507;28;20419;-75